Aviation Digital Data Service (ADDS)

Output produced by METARs form (2248 UTC 15 February 2019)
found at http://www.aviationweather.gov/metar/data/
 
Forecast for: AMD
Text: TAF AMD ETSB 151111Z 1511/1518 12005KT 9999 NSW SKC CANCEL 1120 BY ETGL
Forecast period: 1100 to 1800 UTC 15 February 2019
Forecast type: FROM: standard forecast or significant change
Winds: from the ESE (120 degrees) at 6 MPH (5 knots; 2.6 m/s)
Visibility: 6 or more miles 10+ km)
Clouds: clear skies
Weather: NSW  (no significant weather)